createdAt,value
2018-07-15T00:02:07.996Z,5.83
2018-07-15T00:04:38.407Z,4.83
2018-07-15T00:07:08.934Z,4.93
2018-07-15T00:09:40.198Z,4.93
2018-07-15T00:12:10.908Z,5.20
2018-07-15T00:14:41.769Z,5.93
2018-07-15T00:17:12.634Z,5.03
2018-07-15T00:19:43.249Z,6.17
2018-07-15T00:22:13.912Z,5.10
2018-07-15T00:24:44.576Z,5.27
2018-07-15T00:27:14.959Z,5.87
2018-07-15T00:29:45.548Z,6.20
2018-07-15T00:32:16.136Z,6.23
2018-07-15T00:34:46.702Z,6.03
2018-07-15T00:37:17.290Z,6.37
2018-07-15T00:39:47.982Z,5.50
2018-07-15T00:42:19.237Z,5.10
2018-07-15T00:44:50.554Z,5.67
2018-07-15T00:47:21.825Z,5.40
2018-07-15T00:49:52.306Z,6.77
2018-07-15T00:52:23.015Z,5.33
2018-07-15T00:54:53.737Z,5.47
2018-07-15T00:57:24.416Z,6.13
2018-07-15T00:59:55.008Z,6.10
2018-07-15T01:02:25.569Z,8.43
2018-07-15T01:04:56.228Z,6.60
2018-07-15T01:07:26.814Z,5.77
2018-07-15T01:09:58.264Z,5.10
2018-07-15T01:12:28.748Z,5.43
2018-07-15T01:14:59.345Z,5.70
2018-07-15T01:17:29.980Z,5.53
2018-07-15T01:20:00.481Z,6.60
2018-07-15T01:22:30.633Z,6.13
2018-07-15T01:25:01.177Z,5.90
2018-07-15T01:27:31.817Z,5.63
2018-07-15T01:30:02.422Z,5.70
2018-07-15T01:32:33.021Z,6.30
2018-07-15T01:35:03.720Z,6.00
2018-07-15T01:37:34.172Z,6.90
2018-07-15T01:40:04.726Z,6.43
2018-07-15T01:42:39.566Z,6.17
2018-07-15T01:45:10.043Z,6.20
2018-07-15T01:47:40.717Z,5.73
2018-07-15T01:50:11.484Z,7.13
2018-07-15T01:52:42.075Z,6.13
2018-07-15T01:55:13.551Z,5.70
2018-07-15T01:57:44.156Z,6.00
2018-07-15T02:00:14.741Z,6.43
2018-07-15T02:02:45.458Z,6.00
2018-07-15T02:05:15.961Z,6.30
2018-07-15T02:07:46.585Z,6.50
2018-07-15T02:10:17.161Z,6.40
2018-07-15T02:12:47.898Z,5.83
2018-07-15T02:15:18.621Z,5.50
2018-07-15T02:17:49.542Z,6.67
2018-07-15T02:20:20.133Z,6.17
2018-07-15T02:22:50.839Z,6.50
2018-07-15T02:25:21.508Z,6.60
2018-07-15T02:27:52.303Z,6.80
2018-07-15T02:30:22.924Z,6.60
2018-07-15T02:32:53.353Z,6.57
2018-07-15T02:35:24.314Z,6.13
2018-07-15T02:37:54.882Z,6.80
2018-07-15T02:40:25.814Z,5.87
2018-07-15T02:42:56.082Z,6.70
2018-07-15T02:45:26.392Z,6.53
2018-07-15T02:47:56.955Z,6.10
2018-07-15T02:50:27.666Z,5.97
2018-07-15T02:52:58.249Z,6.17
2018-07-15T02:55:28.806Z,6.40
2018-07-15T02:57:59.342Z,7.33
2018-07-15T03:00:29.985Z,6.90
2018-07-15T03:03:01.102Z,7.23
2018-07-15T03:05:31.798Z,6.60
2018-07-15T03:08:02.405Z,7.20
2018-07-15T03:10:33.022Z,6.40
2018-07-15T03:13:03.759Z,6.80
2018-07-15T03:15:34.387Z,6.20
2018-07-15T03:18:05.136Z,6.73
2018-07-15T03:20:35.766Z,7.27
2018-07-15T03:23:06.602Z,6.97
2018-07-15T03:25:37.206Z,6.40
2018-07-15T03:28:07.790Z,5.87
2018-07-15T03:30:38.837Z,6.77
2018-07-15T03:33:09.435Z,6.73
2018-07-15T03:35:40.760Z,6.63
2018-07-15T03:38:12.010Z,6.77
2018-07-15T03:40:42.540Z,6.67
2018-07-15T03:43:13.478Z,7.13
2018-07-15T03:45:44.158Z,6.03
2018-07-15T03:48:15.769Z,7.10
2018-07-15T03:50:46.321Z,5.90
2018-07-15T03:53:16.834Z,7.57
2018-07-15T03:55:47.785Z,7.37
2018-07-15T03:58:18.209Z,6.83
2018-07-15T04:00:48.853Z,6.70
2018-07-15T04:03:19.339Z,7.03
2018-07-15T04:05:49.940Z,6.90
2018-07-15T04:08:20.623Z,7.17
2018-07-15T04:10:51.210Z,6.90
2018-07-15T04:13:21.878Z,7.10
2018-07-15T04:15:52.375Z,7.00
2018-07-15T04:18:23.012Z,6.90
2018-07-15T04:20:53.953Z,6.90
2018-07-15T04:23:24.646Z,7.47
2018-07-15T04:25:55.195Z,7.83
2018-07-15T04:28:25.842Z,7.87
2018-07-15T04:30:56.496Z,7.23
2018-07-15T04:33:26.952Z,7.20
2018-07-15T04:35:57.451Z,7.23
2018-07-15T04:38:28.042Z,6.90
2018-07-15T04:40:58.720Z,6.53
2018-07-15T04:43:29.575Z,6.57
2018-07-15T04:45:59.994Z,7.03
2018-07-15T04:48:30.728Z,7.10
2018-07-15T04:51:01.157Z,5.83
2018-07-15T04:53:31.815Z,6.83
2018-07-15T04:56:02.385Z,6.90
2018-07-15T04:58:33.622Z,5.83
2018-07-15T05:01:04.733Z,6.53
2018-07-15T05:03:35.157Z,7.33
2018-07-15T05:06:05.911Z,7.10
2018-07-15T05:08:36.485Z,7.00
2018-07-15T05:11:07.146Z,6.70
2018-07-15T05:13:37.771Z,6.07
2018-07-15T05:16:09.292Z,5.83
2018-07-15T05:18:40.549Z,6.43
2018-07-15T05:21:11.408Z,5.83
2018-07-15T05:23:42.071Z,6.23
2018-07-15T05:26:12.733Z,6.00
2018-07-15T05:28:43.885Z,6.13
2018-07-15T05:31:14.360Z,5.73
2018-07-15T05:33:44.960Z,6.60
2018-07-15T05:36:15.433Z,5.87
2018-07-15T05:38:45.950Z,6.63
2018-07-15T05:41:16.624Z,5.80
2018-07-15T05:43:47.321Z,5.27
2018-07-15T05:46:18.067Z,4.33
2018-07-15T05:48:53.034Z,4.73
2018-07-15T05:51:23.573Z,4.40
2018-07-15T05:53:54.178Z,4.20
2018-07-15T05:56:25.044Z,3.53
2018-07-15T05:58:55.657Z,3.67
2018-07-15T06:01:26.380Z,4.03
2018-07-15T06:03:56.872Z,3.73
2018-07-15T06:06:27.496Z,3.80
2018-07-15T06:08:58.123Z,3.97
2018-07-15T06:11:28.706Z,3.80
2018-07-15T06:13:59.498Z,4.20
2018-07-15T06:16:31.088Z,3.27
2018-07-15T06:19:01.755Z,3.30
2018-07-15T06:21:32.343Z,3.30
2018-07-15T06:24:02.927Z,3.10
2018-07-15T06:26:33.620Z,3.70
2018-07-15T06:29:04.397Z,3.30
2018-07-15T06:31:35.437Z,3.10
2018-07-15T06:34:06.298Z,3.70
2018-07-15T06:36:38.087Z,2.60
2018-07-15T06:39:09.494Z,3.30
2018-07-15T06:41:40.337Z,3.30
2018-07-15T06:44:10.940Z,4.47
2018-07-15T06:46:41.686Z,2.87
2018-07-15T06:49:12.173Z,3.00
2018-07-15T06:51:42.873Z,3.30
2018-07-15T06:54:13.418Z,3.07
2018-07-15T06:56:44.181Z,2.97
2018-07-15T06:59:14.737Z,3.07
2018-07-15T07:01:45.418Z,3.87
2018-07-15T07:04:16.106Z,2.77
2018-07-15T07:06:47.053Z,3.23
2018-07-15T07:09:18.324Z,3.30
2018-07-15T07:11:48.884Z,2.70
2018-07-15T07:14:19.566Z,2.90
2018-07-15T07:16:50.228Z,3.20
2018-07-15T07:19:21.212Z,2.70
2018-07-15T07:21:52.045Z,3.20
2018-07-15T07:24:22.672Z,3.20
2018-07-15T07:26:53.433Z,3.30
2018-07-15T07:29:24.037Z,3.10
2018-07-15T07:31:54.770Z,3.07
2018-07-15T07:34:25.395Z,3.37
2018-07-15T07:36:56.084Z,3.30
2018-07-15T07:39:26.795Z,2.90
2018-07-15T07:41:57.297Z,3.20
2018-07-15T07:44:27.692Z,2.60
2018-07-15T07:46:58.845Z,3.30
2018-07-15T07:49:29.434Z,3.10
2018-07-15T07:52:00.376Z,2.90
2018-07-15T07:54:30.961Z,3.03
2018-07-15T07:57:02.211Z,3.00
2018-07-15T07:59:32.737Z,2.90
2018-07-15T08:02:03.507Z,2.60
2018-07-15T08:04:34.204Z,3.00
2018-07-15T08:07:05.020Z,2.60
2018-07-15T08:09:41.665Z,2.37
2018-07-15T08:12:12.395Z,2.83
2018-07-15T08:14:42.919Z,2.43
2018-07-15T08:17:13.686Z,2.50
2018-07-15T08:19:44.470Z,2.70
2018-07-15T08:22:15.118Z,2.70
2018-07-15T08:24:45.882Z,2.70
2018-07-15T08:27:16.555Z,2.20
2018-07-15T08:30:03.737Z,2.67
2018-07-15T08:32:34.440Z,2.40
2018-07-15T08:35:05.076Z,2.83
2018-07-15T08:37:35.676Z,2.47
2018-07-15T08:40:06.495Z,2.57
2018-07-15T08:42:37.398Z,2.60
2018-07-15T08:45:08.253Z,2.50
2018-07-15T08:47:38.809Z,2.30
2018-07-15T08:50:09.577Z,2.60
2018-07-15T08:52:40.234Z,2.40
2018-07-15T08:55:10.866Z,2.27
2018-07-15T08:57:41.320Z,2.67
2018-07-15T09:00:12.000Z,2.37
2018-07-15T09:02:42.704Z,3.37
2018-07-15T09:05:13.291Z,4.27
2018-07-15T09:07:43.985Z,4.30
2018-07-15T09:10:14.799Z,3.83
2018-07-15T09:12:45.584Z,3.37
2018-07-15T09:15:15.961Z,3.40
2018-07-15T09:17:46.396Z,2.87
2018-07-15T09:20:17.006Z,3.20
2018-07-15T09:22:47.789Z,3.50
2018-07-15T09:25:18.622Z,3.00
2018-07-15T09:27:49.290Z,3.20
2018-07-15T09:31:12.476Z,3.47
2018-07-15T09:33:43.315Z,2.83
2018-07-15T09:36:14.156Z,3.57
2018-07-15T09:38:44.773Z,3.20
2018-07-15T09:41:16.052Z,3.07
2018-07-15T09:43:46.779Z,3.00
2018-07-15T09:46:17.409Z,3.57
2018-07-15T09:48:47.694Z,3.07
2018-07-15T09:51:18.161Z,3.40
2018-07-15T09:53:48.697Z,3.30
2018-07-15T09:56:19.330Z,3.63
2018-07-15T09:58:49.916Z,3.43
2018-07-15T10:01:20.587Z,3.03
2018-07-15T10:03:51.143Z,3.53
2018-07-15T10:06:21.981Z,4.10
2018-07-15T10:08:52.670Z,3.70
2018-07-15T10:11:23.356Z,3.77
2018-07-15T10:13:54.061Z,3.17
2018-07-15T10:16:24.714Z,2.67
2018-07-15T10:18:55.335Z,4.57
2018-07-15T10:21:26.819Z,3.00
2018-07-15T10:23:57.357Z,3.40
2018-07-15T10:26:28.056Z,3.13
2018-07-15T10:28:58.809Z,3.67
2018-07-15T10:31:29.308Z,4.20
2018-07-15T10:34:03.119Z,3.50
2018-07-15T10:36:38.786Z,3.20
2018-07-15T10:39:09.520Z,3.80
2018-07-15T10:41:40.212Z,3.63
2018-07-15T10:44:10.761Z,3.53
2018-07-15T10:46:41.319Z,3.40
2018-07-15T10:49:12.082Z,3.83
2018-07-15T10:51:42.668Z,4.00
2018-07-15T10:54:13.382Z,8.03
2018-07-15T10:56:44.037Z,3.83
2018-07-15T10:59:14.748Z,3.53
2018-07-15T11:01:45.308Z,3.20
2018-07-15T11:04:15.767Z,3.23
2018-07-15T11:06:46.355Z,3.10
2018-07-15T11:09:17.345Z,2.70
2018-07-15T11:11:47.834Z,3.03
2018-07-15T11:14:18.449Z,3.10
2018-07-15T11:16:49.280Z,3.10
2018-07-15T11:19:20.904Z,3.13
2018-07-15T11:21:51.775Z,3.33
2018-07-15T11:24:22.637Z,3.30
2018-07-15T11:26:53.481Z,3.43
2018-07-15T11:29:24.085Z,3.07
2018-07-15T11:31:54.704Z,2.93
2018-07-15T11:34:25.385Z,2.87
2018-07-15T11:36:56.176Z,3.20
2018-07-15T11:39:26.718Z,2.97
2018-07-15T11:41:57.355Z,2.97
2018-07-15T11:44:27.978Z,3.27
2018-07-15T11:46:58.499Z,2.93
2018-07-15T11:49:29.231Z,3.00
2018-07-15T11:51:59.770Z,2.70
2018-07-15T11:54:30.392Z,3.10
2018-07-15T11:57:01.896Z,3.00
2018-07-15T11:59:32.440Z,3.20
2018-07-15T12:02:03.190Z,3.27
2018-07-15T12:04:33.853Z,3.10
2018-07-15T12:07:04.299Z,3.17
2018-07-15T12:09:34.901Z,3.20
2018-07-15T12:12:06.230Z,3.00
2018-07-15T12:14:36.870Z,2.40
2018-07-15T12:17:07.365Z,3.40
2018-07-15T12:19:38.053Z,2.40
2018-07-15T12:22:08.634Z,2.67
2018-07-15T12:24:39.390Z,2.50
2018-07-15T12:27:10.203Z,3.07
2018-07-15T12:29:40.809Z,2.80
2018-07-15T12:32:11.403Z,2.73
2018-07-15T12:34:42.002Z,3.17
2018-07-15T12:37:12.541Z,2.47
2018-07-15T12:39:43.299Z,3.70
2018-07-15T12:42:13.986Z,2.30
2018-07-15T12:44:45.093Z,3.60
2018-07-15T12:47:15.717Z,3.07
2018-07-15T12:49:46.027Z,2.23
2018-07-15T12:52:16.832Z,2.90
2018-07-15T12:54:47.424Z,2.60
2018-07-15T12:57:18.038Z,2.63
2018-07-15T12:59:48.770Z,2.63
2018-07-15T13:02:19.973Z,2.67
2018-07-15T13:04:50.515Z,2.47
2018-07-15T13:07:20.736Z,2.40
2018-07-15T13:09:51.240Z,2.20
2018-07-15T13:12:22.037Z,2.80
2018-07-15T13:14:52.677Z,2.90
2018-07-15T13:17:23.279Z,2.60
2018-07-15T13:19:54.193Z,2.67
2018-07-15T13:22:24.817Z,2.70
2018-07-15T13:24:55.677Z,2.13
2018-07-15T13:27:26.436Z,2.63
2018-07-15T13:29:57.163Z,2.67
2018-07-15T13:32:27.869Z,2.30
2018-07-15T13:34:58.549Z,2.33
2018-07-15T13:37:29.123Z,2.37
2018-07-15T13:39:59.700Z,2.67
2018-07-15T13:42:30.540Z,2.63
2018-07-15T13:45:01.185Z,2.57
2018-07-15T13:47:31.510Z,3.10
2018-07-15T13:50:01.885Z,2.40
2018-07-15T13:52:32.454Z,2.67
2018-07-15T13:55:03.750Z,2.97
2018-07-15T13:57:34.353Z,2.70
2018-07-15T14:00:05.975Z,2.53
2018-07-15T14:02:37.124Z,2.63
2018-07-15T14:05:07.778Z,2.90
2018-07-15T14:07:38.374Z,2.20
2018-07-15T14:10:08.981Z,2.07
2018-07-15T14:12:39.513Z,2.23
2018-07-15T14:15:09.964Z,2.60
2018-07-15T14:17:40.565Z,2.30
2018-07-15T14:20:11.470Z,2.20
2018-07-15T14:22:42.241Z,2.70
2018-07-15T14:25:12.429Z,2.27
2018-07-15T14:27:42.955Z,2.27
2018-07-15T14:30:13.632Z,2.00
2018-07-15T14:32:44.186Z,2.17
2018-07-15T14:35:14.605Z,2.20
2018-07-15T14:37:45.358Z,2.00
2018-07-15T14:40:16.039Z,2.20
2018-07-15T14:42:46.673Z,2.20
2018-07-15T14:45:17.188Z,2.30
2018-07-15T14:47:47.743Z,2.60
2018-07-15T14:50:18.345Z,2.20
2018-07-15T14:52:49.134Z,2.30
2018-07-15T14:55:19.629Z,2.40
2018-07-15T14:57:50.449Z,2.57
2018-07-15T15:00:21.261Z,2.40
2018-07-15T15:02:52.046Z,2.10
2018-07-15T15:05:22.946Z,2.27
2018-07-15T15:07:53.666Z,3.07
2018-07-15T15:10:24.361Z,3.00
2018-07-15T15:12:54.968Z,2.50
2018-07-15T15:15:25.723Z,3.10
2018-07-15T15:17:56.256Z,2.60
2018-07-15T15:20:26.936Z,2.90
2018-07-15T15:22:58.038Z,2.67
2018-07-15T15:25:28.881Z,3.03
2018-07-15T15:27:59.533Z,3.23
2018-07-15T15:30:30.272Z,3.17
2018-07-15T15:33:00.836Z,2.30
2018-07-15T15:35:31.813Z,2.70
2018-07-15T15:38:02.447Z,2.57
2018-07-15T15:40:33.387Z,3.20
2018-07-15T15:43:04.587Z,3.10
2018-07-15T15:45:35.155Z,3.20
2018-07-15T15:48:05.720Z,2.90
2018-07-15T15:50:36.391Z,2.70
2018-07-15T15:53:07.003Z,3.20
2018-07-15T15:55:37.658Z,2.80
2018-07-15T15:58:08.300Z,2.97
2018-07-15T16:00:38.739Z,2.90
2018-07-15T16:03:09.995Z,3.37
2018-07-15T16:05:41.195Z,2.90
2018-07-15T16:08:12.109Z,3.20
2018-07-15T16:10:42.854Z,2.87
2018-07-15T16:13:13.921Z,3.27
2018-07-15T16:15:44.485Z,2.17
2018-07-15T16:18:15.060Z,2.93
2018-07-15T16:20:45.865Z,2.50
2018-07-15T16:23:16.541Z,2.60
2018-07-15T16:25:47.039Z,2.30
2018-07-15T16:28:17.874Z,3.20
2018-07-15T16:30:48.381Z,3.77
2018-07-15T16:33:19.097Z,3.60
2018-07-15T16:35:49.355Z,3.97
2018-07-15T16:38:19.851Z,3.60
2018-07-15T16:40:50.311Z,3.07
2018-07-15T16:43:20.817Z,3.77
2018-07-15T16:45:51.037Z,4.10
2018-07-15T16:48:21.610Z,4.40
2018-07-15T16:50:52.154Z,15.43
2018-07-15T16:53:22.857Z,6.80
2018-07-15T16:55:53.664Z,4.80
2018-07-15T16:58:24.500Z,4.83
2018-07-15T17:00:54.783Z,5.77
2018-07-15T17:03:25.235Z,4.60
2018-07-15T17:05:56.101Z,5.00
2018-07-15T17:08:26.651Z,4.93
2018-07-15T17:10:57.376Z,5.83
2018-07-15T17:13:27.904Z,5.00
2018-07-15T17:15:58.543Z,5.03
2018-07-15T17:18:29.246Z,5.70
2018-07-15T17:20:59.448Z,5.73
2018-07-15T17:23:30.082Z,5.97
2018-07-15T17:26:01.334Z,5.83
2018-07-15T17:28:31.909Z,5.27
2018-07-15T17:31:02.528Z,4.77
2018-07-15T17:33:33.158Z,5.80
2018-07-15T17:36:03.988Z,4.60
2018-07-15T17:38:34.241Z,5.00
2018-07-15T17:41:04.721Z,5.00
2018-07-15T17:43:35.789Z,6.30
2018-07-15T17:46:06.525Z,5.10
2018-07-15T17:48:37.371Z,4.87
2018-07-15T17:51:08.057Z,5.60
2018-07-15T17:53:38.753Z,5.40
2018-07-15T17:56:09.423Z,5.70
2018-07-15T17:58:40.176Z,5.40
2018-07-15T18:01:10.909Z,6.10
2018-07-15T18:03:41.573Z,5.90
2018-07-15T18:06:12.283Z,6.17
2018-07-15T18:08:42.843Z,4.70
2018-07-15T18:11:13.542Z,4.87
2018-07-15T18:13:44.301Z,5.10
2018-07-15T18:16:14.964Z,6.07
2018-07-15T18:18:45.660Z,5.53
2018-07-15T18:21:16.384Z,4.97
2018-07-15T18:23:47.119Z,4.83
2018-07-15T18:26:17.983Z,5.03
2018-07-15T18:28:48.618Z,5.50
2018-07-15T18:31:19.573Z,4.73
2018-07-15T18:33:50.564Z,5.33
2018-07-15T18:36:21.834Z,5.80
2018-07-15T18:38:52.784Z,4.50
2018-07-15T18:41:23.457Z,4.73
2018-07-15T18:43:54.629Z,5.20
2018-07-15T18:46:25.765Z,5.90
2018-07-15T18:48:56.820Z,5.50
2018-07-15T18:51:27.478Z,4.20
2018-07-15T18:53:58.158Z,4.10
2018-07-15T18:56:28.970Z,4.93
2018-07-15T18:58:59.657Z,5.57
2018-07-15T19:01:30.354Z,6.60
2018-07-15T19:04:00.510Z,4.77
2018-07-15T19:06:31.119Z,5.50
2018-07-15T19:09:01.669Z,4.73
2018-07-15T19:11:32.391Z,5.00
2018-07-15T19:14:02.660Z,5.27
2018-07-15T19:16:33.143Z,4.43
2018-07-15T19:19:03.741Z,5.63
2018-07-15T19:21:34.403Z,4.80
2018-07-15T19:24:05.238Z,5.90
2018-07-15T19:26:36.165Z,5.50
2018-07-15T19:29:07.170Z,5.17
2018-07-15T19:31:37.843Z,4.40
2018-07-15T19:34:08.581Z,4.73
2018-07-15T19:36:39.157Z,4.10
2018-07-15T19:39:09.523Z,5.10
2018-07-15T19:41:39.976Z,5.43
2018-07-15T19:44:10.994Z,5.10
2018-07-15T19:46:41.547Z,5.17
2018-07-15T19:49:12.073Z,5.27
2018-07-15T19:51:42.431Z,4.90
2018-07-15T19:54:12.906Z,5.30
2018-07-15T19:56:43.681Z,4.67
2018-07-15T19:59:14.323Z,4.40
2018-07-15T20:01:44.842Z,5.00
2018-07-15T20:04:15.451Z,4.53
2018-07-15T20:06:46.265Z,4.40
2018-07-15T20:09:16.814Z,5.87
2018-07-15T20:11:47.785Z,4.50
2018-07-15T20:14:18.772Z,4.50
2018-07-15T20:16:49.354Z,4.57
2018-07-15T20:19:19.976Z,4.47
2018-07-15T20:21:50.642Z,4.77
2018-07-15T20:24:21.440Z,4.30
2018-07-15T20:26:51.942Z,4.37
2018-07-15T20:29:22.518Z,4.93
2018-07-15T20:31:53.140Z,5.00
2018-07-15T20:34:24.423Z,5.90
2018-07-15T20:36:54.556Z,4.30
2018-07-15T20:39:25.611Z,4.30
2018-07-15T20:41:55.982Z,4.87
2018-07-15T20:44:26.327Z,4.37
2018-07-15T20:46:56.986Z,5.97
2018-07-15T20:49:27.455Z,4.03
2018-07-15T20:51:58.129Z,6.83
2018-07-15T20:54:28.802Z,4.83
2018-07-15T20:56:59.449Z,6.13
2018-07-15T20:59:30.165Z,4.50
2018-07-15T21:02:00.703Z,5.20
2018-07-15T21:04:31.211Z,3.63
2018-07-15T21:07:01.957Z,4.80
2018-07-15T21:09:32.696Z,4.80
2018-07-15T21:12:03.317Z,4.53
2018-07-15T21:14:33.961Z,5.50
2018-07-15T21:17:04.905Z,6.30
2018-07-15T21:19:37.813Z,5.00
2018-07-15T21:22:08.574Z,4.87
2018-07-15T21:24:39.036Z,4.50
2018-07-15T21:27:09.586Z,4.60
2018-07-15T21:29:40.095Z,4.53
2018-07-15T21:32:10.585Z,4.00
2018-07-15T21:34:42.166Z,4.90
2018-07-15T21:37:12.872Z,4.47
2018-07-15T21:39:43.566Z,5.07
2018-07-15T21:42:14.198Z,5.63
2018-07-15T21:44:44.844Z,4.80
2018-07-15T21:47:15.514Z,4.87
2018-07-15T21:49:46.206Z,4.03
2018-07-15T21:52:16.914Z,4.67
2018-07-15T21:54:47.553Z,4.70
2018-07-15T21:57:18.075Z,4.47
2018-07-15T21:59:48.837Z,4.10
2018-07-15T22:02:19.435Z,4.07
2018-07-15T22:04:50.055Z,3.43
2018-07-15T22:07:37.529Z,4.30
2018-07-15T22:10:44.790Z,4.73
2018-07-15T22:13:15.718Z,3.80
2018-07-15T22:15:46.882Z,3.90
2018-07-15T22:18:17.761Z,4.23
2018-07-15T22:20:48.370Z,4.20
2018-07-15T22:23:19.185Z,4.00
2018-07-15T22:25:49.702Z,3.90
2018-07-15T22:28:20.290Z,3.83
2018-07-15T22:30:50.975Z,3.37
2018-07-15T22:33:21.993Z,3.73
2018-07-15T22:35:52.240Z,2.90
2018-07-15T22:38:22.641Z,3.90
2018-07-15T22:40:53.157Z,3.83
2018-07-15T22:43:23.931Z,3.37
2018-07-15T22:45:54.560Z,2.80
2018-07-15T22:48:25.004Z,3.07
2018-07-15T22:50:55.823Z,3.60
2018-07-15T22:53:26.262Z,3.53
2018-07-15T22:55:56.927Z,3.53
2018-07-15T22:58:27.744Z,4.30
2018-07-15T23:00:58.246Z,2.97
2018-07-15T23:03:29.700Z,3.30
2018-07-15T23:06:15.792Z,3.60
2018-07-15T23:08:46.834Z,2.97
2018-07-15T23:11:17.312Z,3.23
2018-07-15T23:13:47.781Z,3.00
2018-07-15T23:16:18.361Z,3.57
2018-07-15T23:18:48.950Z,3.07
2018-07-15T23:21:19.197Z,2.67
2018-07-15T23:23:49.725Z,3.37
2018-07-15T23:26:20.304Z,3.20
2018-07-15T23:28:50.936Z,2.93
2018-07-15T23:31:21.656Z,3.23
2018-07-15T23:33:52.215Z,3.20
2018-07-15T23:36:22.947Z,3.40
2018-07-15T23:38:53.314Z,3.17
2018-07-15T23:41:26.725Z,3.13
2018-07-15T23:43:57.496Z,2.90
2018-07-15T23:46:28.138Z,3.67
2018-07-15T23:48:58.680Z,2.87
2018-07-15T23:51:29.137Z,4.30
2018-07-15T23:53:59.763Z,3.83
2018-07-15T23:56:30.444Z,3.30
2018-07-15T23:59:01.979Z,3.17
